Hlavní strana
METAR-TAF:

METAR-TAF

Letiště :

Letiště Haneda

Tokio-Haneda, Japonsko

zeměpisná šířka: 35-33N, zeměpisná délka: 139-47E, výška: 5 m

Aktuální stav počasí

Zpráva byla vytvořena před 28 minutami, v 00:00 UTC
Severní vítr 7 kt
Teplota 19°C
Vlhkost vzduchu 73%
Tlak 1015 hPa
Viditelnost 10 km a více
Skoro jasno ve výšce 4000 ft
Oblačno až skoro zataženo

METAR: RJTT 160000Z 35007KT 9999 FEW040 BKN/// 19/14 Q1015 NOSIG RMK 1CU040 A2999

Čas: 09:28 (00:28 UTC)

Předpověď počasí

Zpráva byla vytvořena před 1 hodinou a 23 minutami, v 23:05 UTC
Předpověď platná od 16 v 00 UTC do 17 v 06 UTC
Severovýchodní vítr 8 kt
Viditelnost 10 km a více
Skoro jasno ve výšce 2000 ft
Polojasno ve výšce 4000 ft

TAF: RJTT 152305Z 1600/1706 04008KT 9999 FEW020 SCT040

Stav a předpovědi počasí z více než 4 000 letišť (zprávy METAR a TAF).

Červené a žluté tečky na mapě představují dostupné meteorologické stanice.

Když kurzor umístíte na tečku, zobrazí se název stanice.

Pak kliknutím zobrazíte stav a předpověď počasí.

Chcete-li změnit mapu, kliknutím na zelené tlačítko se znaménkem +mapu přiblížíte, kliknutím na zelené tlačítko se znaménkem – mapu oddálíte a kliknutím na zelené šipky přejdete na sousední mapy.


METAR-TAF: